SHT22C EGLL-EGJB
Flight info
| Callsign | SHT22C |
|---|---|
| Flight time | 0h 34m |
| Altitude | 19000 |
| Route | GASGU2J GASGU N866 SAM/N0363F180 N63 LELNA LELNA1V |
| Aircraft | A320/M-SDE3FGHIJ1RWXY/S |
Departure
| Time | 2026-04-20 14:36 |
|---|---|
| Airport | London Heathrow Airport (EGLL) |
Arrival
| Time | 2026-04-20 15:11 |
|---|---|
| Airport | Guernsey Airport (EGJB) |
| Time | Latitude | Longitude | Altitude | Speed | Heading |
|---|---|---|---|---|---|
| 2026-04-20 14:09 | 51.46931 | -0.48647 | 90 ft | 0 kts | 360° |
| 2026-04-20 14:27 | 51.46915 | -0.48647 | 91 ft | 4 kts | 360° |
| 2026-04-20 14:28 | 51.46894 | -0.48647 | 88 ft | 4 kts | 354° |
| 2026-04-20 14:28 | 51.46878 | -0.48633 | 87 ft | 4 kts | 278° |
| 2026-04-20 14:28 | 51.46877 | -0.48595 | 86 ft | 2 kts | 270° |
| 2026-04-20 14:28 | 51.46877 | -0.48592 | 86 ft | 0 kts | 270° |
| 2026-04-20 14:32 | 51.46877 | -0.48594 | 86 ft | 1 kts | 270° |
| 2026-04-20 14:32 | 51.46877 | -0.48623 | 90 ft | 4 kts | 270° |
| 2026-04-20 14:32 | 51.46877 | -0.48682 | 87 ft | 6 kts | 270° |
| 2026-04-20 14:32 | 51.46861 | -0.48745 | 87 ft | 7 kts | 205° |
| 2026-04-20 14:33 | 51.46813 | -0.48750 | 87 ft | 6 kts | 180° |
| 2026-04-20 14:33 | 51.46773 | -0.48749 | 86 ft | 6 kts | 178° |
| 2026-04-20 14:33 | 51.46722 | -0.48747 | 86 ft | 9 kts | 178° |
| 2026-04-20 14:33 | 51.46652 | -0.48745 | 86 ft | 11 kts | 179° |
| 2026-04-20 14:34 | 51.46568 | -0.48781 | 86 ft | 13 kts | 198° |
| 2026-04-20 14:34 | 51.46496 | -0.48769 | 89 ft | 11 kts | 144° |
| 2026-04-20 14:34 | 51.46478 | -0.48660 | 88 ft | 8 kts | 85° |
| 2026-04-20 14:34 | 51.46478 | -0.48648 | 87 ft | 0 kts | 88° |
| 2026-04-20 14:35 | 51.46478 | -0.48644 | 86 ft | 2 kts | 88° |
| 2026-04-20 14:35 | 51.46480 | -0.48462 | 87 ft | 47 kts | 89° |
| 2026-04-20 14:35 | 51.46485 | -0.47562 | 89 ft | 111 kts | 90° |
| 2026-04-20 14:36 | 51.46484 | -0.46052 | 108 ft | 157 kts | 88° |
| 2026-04-20 14:36 | 51.46489 | -0.44286 | 668 ft | 162 kts | 88° |
| 2026-04-20 14:36 | 51.46514 | -0.42406 | 1259 ft | 173 kts | 88° |
| 2026-04-20 14:36 | 51.46191 | -0.40384 | 1485 ft | 210 kts | 118° |
| 2026-04-20 14:37 | 51.45326 | -0.38317 | 1935 ft | 236 kts | 123° |
| 2026-04-20 14:37 | 51.44317 | -0.36137 | 2729 ft | 247 kts | 124° |
| 2026-04-20 14:37 | 51.43114 | -0.34124 | 3691 ft | 257 kts | 142° |
| 2026-04-20 14:37 | 51.41458 | -0.32959 | 4681 ft | 267 kts | 165° |
| 2026-04-20 14:38 | 51.39585 | -0.32899 | 5574 ft | 277 kts | 189° |
| 2026-04-20 14:38 | 51.37813 | -0.34119 | 6051 ft | 282 kts | 218° |
| 2026-04-20 14:38 | 51.36373 | -0.36253 | 7039 ft | 282 kts | 223° |
| 2026-04-20 14:38 | 51.34922 | -0.38399 | 7976 ft | 286 kts | 223° |
| 2026-04-20 14:39 | 51.33440 | -0.40543 | 8870 ft | 290 kts | 223° |
| 2026-04-20 14:39 | 51.31930 | -0.42721 | 9776 ft | 294 kts | 225° |
| 2026-04-20 14:39 | 51.30634 | -0.45230 | 10633 ft | 294 kts | 242° |
| 2026-04-20 14:39 | 51.29852 | -0.48224 | 11456 ft | 296 kts | 256° |
| 2026-04-20 14:40 | 51.29260 | -0.51511 | 11718 ft | 319 kts | 256° |
| 2026-04-20 14:40 | 51.28637 | -0.55008 | 12158 ft | 333 kts | 257° |
| 2026-04-20 14:40 | 51.27994 | -0.58583 | 12903 ft | 337 kts | 256° |
| 2026-04-20 14:40 | 51.27317 | -0.62181 | 13696 ft | 340 kts | 255° |
| 2026-04-20 14:41 | 51.26614 | -0.65793 | 14453 ft | 342 kts | 255° |
| 2026-04-20 14:41 | 51.25898 | -0.69430 | 15175 ft | 344 kts | 255° |
| 2026-04-20 14:41 | 51.25178 | -0.73073 | 15878 ft | 345 kts | 256° |
| 2026-04-20 14:41 | 51.24456 | -0.76741 | 16579 ft | 347 kts | 256° |
| 2026-04-20 14:42 | 51.23731 | -0.80430 | 17292 ft | 349 kts | 257° |
| 2026-04-20 14:42 | 51.23001 | -0.84132 | 18008 ft | 351 kts | 257° |
| 2026-04-20 14:42 | 51.22268 | -0.87854 | 18703 ft | 353 kts | 257° |
| 2026-04-20 14:42 | 51.21489 | -0.91593 | 19141 ft | 357 kts | 253° |
| 2026-04-20 14:43 | 51.20395 | -0.95173 | 19207 ft | 365 kts | 245° |
| 2026-04-20 14:43 | 51.18911 | -0.98546 | 19246 ft | 379 kts | 235° |
| 2026-04-20 14:43 | 51.17059 | -1.01594 | 19248 ft | 384 kts | 230° |
| 2026-04-20 14:43 | 51.15145 | -1.04574 | 19249 ft | 385 kts | 230° |
| 2026-04-20 14:44 | 51.13222 | -1.07522 | 19872 ft | 383 kts | 230° |
| 2026-04-20 14:44 | 51.11297 | -1.10453 | 20627 ft | 383 kts | 230° |
| 2026-04-20 14:44 | 51.09366 | -1.13390 | 21309 ft | 384 kts | 230° |
| 2026-04-20 14:44 | 51.07431 | -1.16338 | 21938 ft | 386 kts | 231° |
| 2026-04-20 14:45 | 51.05514 | -1.19269 | 22532 ft | 388 kts | 231° |
| 2026-04-20 14:45 | 51.03565 | -1.22246 | 23081 ft | 390 kts | 231° |
| 2026-04-20 14:45 | 51.01609 | -1.25233 | 23227 ft | 390 kts | 231° |
| 2026-04-20 14:45 | 50.99649 | -1.28215 | 23248 ft | 389 kts | 231° |
| 2026-04-20 14:46 | 50.97695 | -1.31187 | 23248 ft | 389 kts | 231° |
| 2026-04-20 14:46 | 50.95647 | -1.34026 | 23248 ft | 395 kts | 224° |
| 2026-04-20 14:46 | 50.93272 | -1.36334 | 23243 ft | 405 kts | 215° |
| 2026-04-20 14:46 | 50.90754 | -1.38352 | 23244 ft | 405 kts | 215° |
| 2026-04-20 14:47 | 50.88234 | -1.40356 | 23245 ft | 405 kts | 214° |
| 2026-04-20 14:47 | 50.85717 | -1.42352 | 23228 ft | 405 kts | 214° |
| 2026-04-20 14:47 | 50.83200 | -1.44347 | 23250 ft | 404 kts | 214° |
| 2026-04-20 14:48 | 50.78176 | -1.48337 | 23250 ft | 404 kts | 214° |
| 2026-04-20 14:48 | 50.75663 | -1.50330 | 23252 ft | 404 kts | 214° |
| 2026-04-20 14:48 | 50.73151 | -1.52321 | 23252 ft | 404 kts | 214° |
| 2026-04-20 14:48 | 50.70676 | -1.54285 | 23252 ft | 404 kts | 214° |
| 2026-04-20 14:49 | 50.68167 | -1.56275 | 23253 ft | 404 kts | 214° |
| 2026-04-20 14:49 | 50.65656 | -1.58261 | 23255 ft | 404 kts | 214° |
| 2026-04-20 14:49 | 50.63143 | -1.60244 | 23220 ft | 404 kts | 214° |
| 2026-04-20 14:49 | 50.60629 | -1.62224 | 23235 ft | 404 kts | 213° |
| 2026-04-20 14:50 | 50.58114 | -1.64205 | 23244 ft | 404 kts | 213° |
| 2026-04-20 14:50 | 50.55601 | -1.66183 | 23249 ft | 404 kts | 213° |
| 2026-04-20 14:50 | 50.53086 | -1.68160 | 23251 ft | 404 kts | 213° |
| 2026-04-20 14:50 | 50.50572 | -1.70130 | 23254 ft | 404 kts | 213° |
| 2026-04-20 14:51 | 50.48076 | -1.72079 | 23257 ft | 395 kts | 213° |
| 2026-04-20 14:51 | 50.45628 | -1.73987 | 23258 ft | 391 kts | 213° |
| 2026-04-20 14:51 | 50.43200 | -1.75883 | 23264 ft | 390 kts | 214° |
| 2026-04-20 14:51 | 50.40772 | -1.77782 | 23260 ft | 389 kts | 214° |
| 2026-04-20 14:52 | 50.38350 | -1.79677 | 23257 ft | 389 kts | 214° |
| 2026-04-20 14:52 | 50.35923 | -1.81570 | 23255 ft | 390 kts | 213° |
| 2026-04-20 14:52 | 50.33493 | -1.83461 | 23255 ft | 390 kts | 213° |
| 2026-04-20 14:52 | 50.31068 | -1.85347 | 23245 ft | 390 kts | 213° |
| 2026-04-20 14:53 | 50.28639 | -1.87235 | 23253 ft | 390 kts | 213° |
| 2026-04-20 14:53 | 50.26207 | -1.89124 | 23253 ft | 390 kts | 213° |
| 2026-04-20 14:53 | 50.23831 | -1.90959 | 23013 ft | 382 kts | 213° |
| 2026-04-20 14:53 | 50.21471 | -1.92773 | 22735 ft | 375 kts | 213° |
| 2026-04-20 14:54 | 50.19115 | -1.94590 | 22463 ft | 378 kts | 213° |
| 2026-04-20 14:54 | 50.16758 | -1.96416 | 22192 ft | 378 kts | 213° |
| 2026-04-20 14:54 | 50.14408 | -1.98236 | 21912 ft | 376 kts | 213° |
| 2026-04-20 14:54 | 50.12073 | -2.00039 | 21644 ft | 374 kts | 212° |
| 2026-04-20 14:55 | 50.09741 | -2.01833 | 21382 ft | 373 kts | 212° |
| 2026-04-20 14:55 | 50.07416 | -2.03618 | 21123 ft | 372 kts | 212° |
| 2026-04-20 14:55 | 50.05097 | -2.05394 | 20864 ft | 371 kts | 212° |
| 2026-04-20 14:55 | 50.02782 | -2.07166 | 20607 ft | 370 kts | 212° |
| 2026-04-20 14:56 | 50.00473 | -2.08931 | 20355 ft | 369 kts | 212° |
| 2026-04-20 14:56 | 49.98323 | -2.11032 | 20100 ft | 361 kts | 223° |
| 2026-04-20 14:56 | 49.96505 | -2.13651 | 19729 ft | 354 kts | 233° |
| 2026-04-20 14:56 | 49.94883 | -2.16509 | 19244 ft | 352 kts | 233° |
| 2026-04-20 14:57 | 49.93260 | -2.19363 | 18779 ft | 353 kts | 232° |
| 2026-04-20 14:57 | 49.91634 | -2.22214 | 18262 ft | 352 kts | 232° |
| 2026-04-20 14:57 | 49.90009 | -2.25058 | 17772 ft | 351 kts | 232° |
| 2026-04-20 14:57 | 49.88390 | -2.27887 | 17290 ft | 349 kts | 232° |
| 2026-04-20 14:58 | 49.87322 | -2.29747 | 16984 ft | 348 kts | 232° |
| 2026-04-20 14:58 | 49.85716 | -2.32538 | 16514 ft | 346 kts | 231° |
| 2026-04-20 14:58 | 49.84114 | -2.35317 | 16044 ft | 344 kts | 231° |
| 2026-04-20 14:58 | 49.82526 | -2.38077 | 15584 ft | 342 kts | 231° |
| 2026-04-20 14:59 | 49.80435 | -2.41705 | 14975 ft | 339 kts | 232° |
| 2026-04-20 14:59 | 49.78871 | -2.44415 | 14518 ft | 337 kts | 232° |
| 2026-04-20 14:59 | 49.77817 | -2.46239 | 14202 ft | 336 kts | 231° |
| 2026-04-20 14:59 | 49.76263 | -2.48924 | 13727 ft | 334 kts | 231° |
| 2026-04-20 15:00 | 49.74720 | -2.51591 | 13269 ft | 332 kts | 231° |
| 2026-04-20 15:00 | 49.73188 | -2.54239 | 12827 ft | 329 kts | 230° |
| 2026-04-20 15:00 | 49.71664 | -2.56871 | 12381 ft | 328 kts | 230° |
| 2026-04-20 15:00 | 49.70162 | -2.59504 | 11922 ft | 326 kts | 230° |
| 2026-04-20 15:01 | 49.68683 | -2.62081 | 11461 ft | 324 kts | 230° |
| 2026-04-20 15:01 | 49.67174 | -2.64717 | 10999 ft | 323 kts | 230° |
| 2026-04-20 15:01 | 49.65709 | -2.67326 | 10554 ft | 321 kts | 230° |
| 2026-04-20 15:01 | 49.64277 | -2.69908 | 10116 ft | 320 kts | 230° |
| 2026-04-20 15:02 | 49.62840 | -2.72523 | 9640 ft | 319 kts | 230° |
| 2026-04-20 15:02 | 49.61414 | -2.75128 | 9157 ft | 317 kts | 230° |
| 2026-04-20 15:02 | 49.60004 | -2.77731 | 8682 ft | 315 kts | 230° |
| 2026-04-20 15:02 | 49.58633 | -2.80284 | 8251 ft | 300 kts | 230° |
| 2026-04-20 15:03 | 49.57366 | -2.82672 | 8131 ft | 277 kts | 232° |
| 2026-04-20 15:03 | 49.56360 | -2.85071 | 7987 ft | 257 kts | 239° |
| 2026-04-20 15:03 | 49.55491 | -2.87412 | 7641 ft | 249 kts | 240° |
| 2026-04-20 15:03 | 49.54649 | -2.89725 | 7163 ft | 246 kts | 240° |
| 2026-04-20 15:04 | 49.53821 | -2.92024 | 6675 ft | 244 kts | 240° |
| 2026-04-20 15:04 | 49.52926 | -2.94223 | 6136 ft | 242 kts | 225° |
| 2026-04-20 15:04 | 49.51584 | -2.95724 | 5562 ft | 238 kts | 199° |
| 2026-04-20 15:04 | 49.49994 | -2.96156 | 4996 ft | 230 kts | 170° |
| 2026-04-20 15:05 | 49.48494 | -2.95501 | 4488 ft | 222 kts | 144° |
| 2026-04-20 15:05 | 49.47351 | -2.94021 | 4232 ft | 211 kts | 123° |
| 2026-04-20 15:05 | 49.46592 | -2.92131 | 4009 ft | 205 kts | 117° |
| 2026-04-20 15:05 | 49.45891 | -2.90275 | 3833 ft | 198 kts | 117° |
| 2026-04-20 15:06 | 49.45213 | -2.88484 | 3659 ft | 187 kts | 117° |
| 2026-04-20 15:06 | 49.44579 | -2.86814 | 3498 ft | 176 kts | 117° |
| 2026-04-20 15:06 | 49.43973 | -2.85219 | 3329 ft | 170 kts | 116° |
| 2026-04-20 15:06 | 49.43385 | -2.83671 | 3128 ft | 167 kts | 116° |
| 2026-04-20 15:07 | 49.42973 | -2.82049 | 2946 ft | 159 kts | 96° |
| 2026-04-20 15:07 | 49.42957 | -2.80407 | 2776 ft | 150 kts | 88° |
| 2026-04-20 15:07 | 49.42981 | -2.78831 | 2592 ft | 145 kts | 88° |
| 2026-04-20 15:07 | 49.43015 | -2.77322 | 2400 ft | 143 kts | 87° |
| 2026-04-20 15:08 | 49.43054 | -2.75805 | 2214 ft | 142 kts | 86° |
| 2026-04-20 15:08 | 49.43096 | -2.74298 | 2023 ft | 139 kts | 86° |
| 2026-04-20 15:08 | 49.43135 | -2.72894 | 1842 ft | 129 kts | 86° |
| 2026-04-20 15:08 | 49.43173 | -2.71521 | 1644 ft | 128 kts | 86° |
| 2026-04-20 15:09 | 49.43202 | -2.70182 | 1478 ft | 125 kts | 85° |
| 2026-04-20 15:09 | 49.43238 | -2.68847 | 1305 ft | 124 kts | 84° |
| 2026-04-20 15:09 | 49.43287 | -2.67524 | 1154 ft | 124 kts | 84° |
| 2026-04-20 15:09 | 49.43316 | -2.66206 | 936 ft | 123 kts | 85° |
| 2026-04-20 15:10 | 49.43364 | -2.64884 | 791 ft | 125 kts | 83° |
| 2026-04-20 15:10 | 49.43403 | -2.63539 | 586 ft | 124 kts | 84° |
| 2026-04-20 15:10 | 49.43441 | -2.62211 | 435 ft | 124 kts | 85° |
| 2026-04-20 15:10 | 49.43479 | -2.60893 | 325 ft | 119 kts | 84° |
| 2026-04-20 15:11 | 49.43502 | -2.60116 | 336 ft | 38 kts | 86° |
| 2026-04-20 15:11 | 49.43508 | -2.59913 | 344 ft | 12 kts | 89° |
| 2026-04-20 15:11 | 49.43467 | -2.59862 | 344 ft | 9 kts | 178° |
| 2026-04-20 15:11 | 49.43399 | -2.59860 | 344 ft | 8 kts | 178° |
| 2026-04-20 15:12 | 49.43352 | -2.59845 | 352 ft | 6 kts | 131° |
| 2026-04-20 15:12 | 49.43349 | -2.59770 | 344 ft | 7 kts | 75° |
| 2026-04-20 15:12 | 49.43362 | -2.59685 | 344 ft | 9 kts | 83° |
| 2026-04-20 15:12 | 49.43357 | -2.59634 | 349 ft | 2 kts | 151° |
| 2026-04-20 15:13 | 49.43326 | -2.59626 | 349 ft | 6 kts | 171° |
| 2026-04-20 15:13 | 49.43285 | -2.59624 | 344 ft | 2 kts | 178° |
| 2026-04-20 15:13 | 49.43270 | -2.59622 | 344 ft | 3 kts | 174° |
| 2026-04-20 15:13 | 49.43258 | -2.59621 | 344 ft | 0 kts | 176° |